createdAt,value
2018-07-12T00:01:15.406Z,52.80
2018-07-12T00:03:42.642Z,53.80
2018-07-12T00:06:09.755Z,55.07
2018-07-12T00:08:36.858Z,54.90
2018-07-12T00:11:03.963Z,50.90
2018-07-12T00:13:31.063Z,53.07
2018-07-12T00:15:58.162Z,53.00
2018-07-12T00:18:25.262Z,51.23
2018-07-12T00:20:52.378Z,50.77
2018-07-12T00:23:19.486Z,51.17
2018-07-12T00:25:46.579Z,51.47
2018-07-12T00:28:13.687Z,52.30
2018-07-12T00:30:40.787Z,51.60
2018-07-12T00:33:08.450Z,50.37
2018-07-12T00:35:35.575Z,48.47
2018-07-12T00:38:02.688Z,49.30
2018-07-12T00:40:29.787Z,50.20
2018-07-12T00:42:56.966Z,45.63
2018-07-12T00:45:24.063Z,47.40
2018-07-12T00:47:51.225Z,44.17
2018-07-12T00:50:18.330Z,48.27
2018-07-12T00:52:45.439Z,47.13
2018-07-12T00:55:12.551Z,49.17
2018-07-12T00:57:39.654Z,47.17
2018-07-12T01:00:06.756Z,49.73
2018-07-12T01:02:33.851Z,48.23
2018-07-12T01:05:00.959Z,48.10
2018-07-12T01:07:28.061Z,50.33
2018-07-12T01:09:55.190Z,50.47
2018-07-12T01:12:22.299Z,44.80
2018-07-12T01:14:49.400Z,46.10
2018-07-12T01:17:16.502Z,45.20
2018-07-12T01:19:43.602Z,44.93
2018-07-12T01:22:10.708Z,40.53
2018-07-12T01:24:37.810Z,45.93
2018-07-12T01:27:04.924Z,46.10
2018-07-12T01:29:32.023Z,45.57
2018-07-12T01:31:59.140Z,43.63
2018-07-12T01:34:26.242Z,40.40
2018-07-12T01:36:53.363Z,46.07
2018-07-12T01:39:20.466Z,46.67
2018-07-12T01:41:47.567Z,45.47
2018-07-12T01:44:14.677Z,47.83
2018-07-12T01:46:41.778Z,44.70
2018-07-12T01:49:08.879Z,42.60
2018-07-12T01:51:35.985Z,43.00
2018-07-12T01:54:03.086Z,46.73
2018-07-12T01:59:03.747Z,42.93
2018-07-12T02:01:30.847Z,40.90
2018-07-12T02:03:57.960Z,46.17
2018-07-12T02:06:25.063Z,45.80
2018-07-12T02:08:52.163Z,45.67
2018-07-12T02:11:19.262Z,42.80
2018-07-12T02:13:46.367Z,45.67
2018-07-12T02:16:13.484Z,44.40
2018-07-12T02:18:40.587Z,46.10
2018-07-12T02:21:07.705Z,46.23
2018-07-12T02:23:34.807Z,45.83
2018-07-12T02:26:01.910Z,46.00
2018-07-12T02:28:29.014Z,45.50
2018-07-12T02:30:56.138Z,43.63
2018-07-12T02:33:23.243Z,46.17
2018-07-12T02:35:50.351Z,47.33
2018-07-12T02:38:17.465Z,47.47
2018-07-12T02:40:44.570Z,48.93
2018-07-12T02:43:11.678Z,51.03
2018-07-12T02:45:38.771Z,51.57
2018-07-12T02:48:05.879Z,52.67
2018-07-12T02:50:32.980Z,52.87
2018-07-12T02:53:00.087Z,52.60
2018-07-12T02:55:27.183Z,48.07
2018-07-12T02:57:54.290Z,46.90
2018-07-12T03:00:21.580Z,43.63
2018-07-12T03:02:48.667Z,41.73
2018-07-12T03:05:15.781Z,40.33
2018-07-12T03:07:42.891Z,38.70
2018-07-12T03:10:09.995Z,39.60
2018-07-12T03:12:37.098Z,40.73
2018-07-12T03:15:04.206Z,39.60
2018-07-12T03:17:31.310Z,43.27
2018-07-12T03:19:58.436Z,38.60
2018-07-12T03:22:25.530Z,42.03
2018-07-12T03:24:52.638Z,41.43
2018-07-12T03:27:19.793Z,39.70
2018-07-12T03:29:46.846Z,38.40
2018-07-12T03:32:13.991Z,39.43
2018-07-12T03:34:41.062Z,41.10
2018-07-12T03:37:08.174Z,40.00
2018-07-12T03:39:35.311Z,39.33
2018-07-12T03:42:02.427Z,37.93
2018-07-12T03:44:29.533Z,35.03
2018-07-12T03:46:56.655Z,41.43
2018-07-12T03:49:23.763Z,42.40
2018-07-12T03:51:50.859Z,46.43
2018-07-12T03:54:18.147Z,41.57
2018-07-12T03:56:45.254Z,39.13
2018-07-12T03:59:12.363Z,39.60
2018-07-12T04:01:39.462Z,41.47
2018-07-12T04:04:06.579Z,39.10
2018-07-12T04:06:33.684Z,41.00
2018-07-12T04:09:00.803Z,39.47
2018-07-12T04:11:27.903Z,40.87
2018-07-12T04:13:55.002Z,39.00
2018-07-12T04:16:22.111Z,40.07
2018-07-12T04:18:49.306Z,37.40
2018-07-12T04:21:16.432Z,37.33
2018-07-12T04:23:43.572Z,41.97
2018-07-12T04:26:10.672Z,38.50
2018-07-12T04:28:37.774Z,38.97
2018-07-12T04:31:04.883Z,37.40
2018-07-12T04:33:31.998Z,38.10
2018-07-12T04:35:59.104Z,38.57
2018-07-12T04:38:26.209Z,38.13
2018-07-12T04:40:53.323Z,36.07
2018-07-12T04:43:20.430Z,35.30
2018-07-12T04:45:47.535Z,35.77
2018-07-12T04:48:14.841Z,41.70
2018-07-12T04:50:41.955Z,44.77
2018-07-12T04:53:09.075Z,45.13
2018-07-12T04:55:36.187Z,45.23
2018-07-12T04:58:03.327Z,54.83
2018-07-12T05:00:30.431Z,51.77
2018-07-12T05:02:57.543Z,49.23
2018-07-12T05:05:24.654Z,46.00
2018-07-12T05:07:51.763Z,53.53
2018-07-12T05:10:18.879Z,48.77
2018-07-12T05:12:45.979Z,53.33
2018-07-12T05:15:13.087Z,50.63
2018-07-12T05:17:40.198Z,56.00
2018-07-12T05:20:07.334Z,53.50
2018-07-12T05:22:34.447Z,49.23
2018-07-12T05:25:01.535Z,53.80
2018-07-12T05:27:28.646Z,53.07
2018-07-12T05:29:55.745Z,49.80
2018-07-12T05:32:22.858Z,53.93
2018-07-12T05:34:49.959Z,51.73
2018-07-12T05:37:18.131Z,48.30
2018-07-12T05:39:46.299Z,49.73
2018-07-12T05:42:14.484Z,51.73
2018-07-12T05:44:42.654Z,53.23
2018-07-12T05:47:10.855Z,49.27
2018-07-12T05:49:39.027Z,43.83
2018-07-12T05:52:07.204Z,43.53
2018-07-12T05:54:35.382Z,45.50
2018-07-12T05:57:03.567Z,44.10
2018-07-12T05:59:31.743Z,42.40
2018-07-12T06:02:11.158Z,44.73
2018-07-12T06:04:39.339Z,44.97
2018-07-12T06:07:07.510Z,43.47
2018-07-12T06:09:35.695Z,43.97
2018-07-12T06:12:03.870Z,46.47
2018-07-12T06:14:32.046Z,49.87
2018-07-12T06:17:00.233Z,49.63
2018-07-12T06:19:28.393Z,53.80
2018-07-12T06:21:56.573Z,52.50
2018-07-12T06:24:24.762Z,53.37
2018-07-12T06:26:52.962Z,53.07
2018-07-12T06:29:21.141Z,54.87
2018-07-12T06:31:49.314Z,56.23
2018-07-12T06:34:17.486Z,58.17
2018-07-12T06:36:45.666Z,56.73
2018-07-12T06:39:13.834Z,59.93
2018-07-12T06:41:42.016Z,67.60
2018-07-12T06:44:10.198Z,66.40
2018-07-12T06:46:38.382Z,65.33
2018-07-12T06:49:06.562Z,60.57
2018-07-12T06:51:34.944Z,62.70
2018-07-12T06:54:03.123Z,60.57
2018-07-12T06:56:31.343Z,70.13
2018-07-12T06:58:59.510Z,70.53
2018-07-12T07:01:27.744Z,78.70
2018-07-12T07:03:56.015Z,72.43
2018-07-12T07:06:24.182Z,74.57
2018-07-12T07:08:52.375Z,76.07
2018-07-12T07:11:20.562Z,79.50
2018-07-12T07:13:49.142Z,80.73
2018-07-12T07:16:17.319Z,76.80
2018-07-12T07:18:45.515Z,79.30
2018-07-12T07:21:13.695Z,79.23
2018-07-12T07:23:42.027Z,75.07
2018-07-12T07:26:10.235Z,77.37
2018-07-12T07:28:38.351Z,66.27
2018-07-12T07:31:06.567Z,67.67
2018-07-12T07:33:34.722Z,67.40
2018-07-12T07:36:02.895Z,65.77
2018-07-12T07:38:31.066Z,69.70
2018-07-12T07:40:59.242Z,66.87
2018-07-12T07:43:27.404Z,72.07
2018-07-12T07:45:55.576Z,76.60
2018-07-12T07:48:23.730Z,76.97
2018-07-12T07:50:51.915Z,71.50
2018-07-12T07:53:20.083Z,63.50
2018-07-12T07:55:48.434Z,65.17
2018-07-12T07:58:16.630Z,68.50
2018-07-12T08:00:44.802Z,72.17
2018-07-12T08:03:13.125Z,66.63
2018-07-12T08:05:41.328Z,68.10
2018-07-12T08:08:09.490Z,70.20
2018-07-12T08:10:37.658Z,73.73
2018-07-12T08:13:05.822Z,67.50
2018-07-12T08:15:33.996Z,74.80
2018-07-12T08:18:02.167Z,68.70
2018-07-12T08:20:30.327Z,70.97
2018-07-12T08:22:58.495Z,69.77
2018-07-12T08:25:26.683Z,68.63
2018-07-12T08:28:06.178Z,67.70
2018-07-12T08:30:34.335Z,70.23
2018-07-12T08:33:02.509Z,80.80
2018-07-12T08:35:30.667Z,68.93
2018-07-12T08:37:58.840Z,70.50
2018-07-12T08:40:27.047Z,65.80
2018-07-12T08:42:55.171Z,67.80
2018-07-12T08:45:23.339Z,72.40
2018-07-12T08:47:51.506Z,75.80
2018-07-12T08:50:19.695Z,67.73
2018-07-12T08:52:47.869Z,69.40
2018-07-12T08:55:16.062Z,69.23
2018-07-12T08:57:44.423Z,67.63
2018-07-12T09:00:12.617Z,68.47
2018-07-12T09:02:41.107Z,60.33
2018-07-12T09:05:09.262Z,66.90
2018-07-12T09:07:37.434Z,63.43
2018-07-12T09:10:05.606Z,67.67
2018-07-12T09:12:33.803Z,59.77
2018-07-12T09:15:01.979Z,64.43
2018-07-12T09:17:30.160Z,61.23
2018-07-12T09:19:58.338Z,59.57
2018-07-12T09:22:26.511Z,56.73
2018-07-12T09:24:54.670Z,59.17
2018-07-12T09:27:22.838Z,62.03
2018-07-12T09:29:51.006Z,55.40
2018-07-12T09:32:19.190Z,50.33
2018-07-12T09:34:47.425Z,54.17
2018-07-12T09:37:15.535Z,52.80
2018-07-12T09:39:43.736Z,55.07
2018-07-12T09:42:11.858Z,55.70
2018-07-12T09:44:40.049Z,54.00
2018-07-12T09:47:08.235Z,54.23
2018-07-12T09:49:36.407Z,53.83
2018-07-12T09:52:08.750Z,53.17
2018-07-12T09:54:36.987Z,47.53
2018-07-12T09:57:16.362Z,48.43
2018-07-12T09:59:44.542Z,46.77
2018-07-12T10:02:18.086Z,50.47
2018-07-12T10:04:46.271Z,49.67
2018-07-12T10:07:19.649Z,47.80
2018-07-12T10:09:53.231Z,46.23
2018-07-12T10:12:26.842Z,46.07
2018-07-12T10:15:10.210Z,45.23
2018-07-12T10:17:43.514Z,50.70
2018-07-12T10:20:11.702Z,48.67
2018-07-12T10:22:39.879Z,47.10
2018-07-12T10:25:08.418Z,49.37
2018-07-12T10:27:36.551Z,42.20
2018-07-12T10:30:05.186Z,43.43
2018-07-12T10:32:33.346Z,42.40
2018-07-12T10:35:01.544Z,42.83
2018-07-12T10:37:29.727Z,41.50
2018-07-12T10:39:57.894Z,38.47
2018-07-12T10:42:26.060Z,39.67
2018-07-12T10:44:54.236Z,42.20
2018-07-12T10:47:22.550Z,40.50
2018-07-12T10:49:50.732Z,40.07
2018-07-12T10:52:18.915Z,38.23
2018-07-12T10:54:47.083Z,36.40
2018-07-12T10:57:15.262Z,38.13
2018-07-12T10:59:43.445Z,34.87
2018-07-12T11:02:11.623Z,38.40
2018-07-12T11:04:39.835Z,37.20
2018-07-12T11:07:08.007Z,34.93
2018-07-12T11:09:36.192Z,34.70
2018-07-12T11:12:04.359Z,32.13
2018-07-12T11:14:32.543Z,32.33
2018-07-12T11:17:00.710Z,33.90
2018-07-12T11:19:28.898Z,34.70
2018-07-12T11:21:57.059Z,33.77
2018-07-12T11:24:25.238Z,31.57
2018-07-12T11:26:53.423Z,31.00
2018-07-12T11:29:31.495Z,25.33
2018-07-12T11:31:59.702Z,28.13
2018-07-12T11:34:27.889Z,25.70
2018-07-12T11:36:56.108Z,26.57
2018-07-12T11:39:24.237Z,30.57
2018-07-12T11:41:52.445Z,27.73
2018-07-12T11:44:20.775Z,33.20
2018-07-12T11:46:49.007Z,32.13
2018-07-12T11:49:17.163Z,34.53
2018-07-12T11:51:45.519Z,32.83
2018-07-12T11:54:13.711Z,30.90
2018-07-12T11:56:42.118Z,29.77
2018-07-12T11:59:10.274Z,30.70
2018-07-12T12:01:38.509Z,31.70
2018-07-12T12:04:06.954Z,32.50
2018-07-12T12:06:35.118Z,31.23
2018-07-12T12:09:04.603Z,31.63
2018-07-12T12:11:32.767Z,34.53
2018-07-12T12:14:00.943Z,36.07
2018-07-12T12:16:29.123Z,33.53
2018-07-12T12:18:57.306Z,33.70
2018-07-12T12:21:25.731Z,33.30
2018-07-12T12:23:53.911Z,32.40
2018-07-12T12:26:22.645Z,30.13
2018-07-12T12:28:51.200Z,30.67
2018-07-12T12:31:19.386Z,32.73
2018-07-12T12:33:47.566Z,30.37
2018-07-12T12:36:15.763Z,31.37
2018-07-12T12:38:43.930Z,33.10
2018-07-12T12:41:12.111Z,31.70
2018-07-12T12:43:40.295Z,39.27
2018-07-12T12:46:08.515Z,37.90
2018-07-12T12:48:36.695Z,40.30
2018-07-12T12:51:04.953Z,37.67
2018-07-12T12:53:33.166Z,38.83
2018-07-12T12:56:01.683Z,35.97
2018-07-12T12:58:29.893Z,35.50
2018-07-12T13:00:58.101Z,34.73
2018-07-12T13:03:27.615Z,37.13
2018-07-12T13:05:55.894Z,33.70
2018-07-12T13:08:24.056Z,34.33
2018-07-12T13:10:52.309Z,35.10
2018-07-12T13:13:20.478Z,33.30
2018-07-12T13:15:49.084Z,31.40
2018-07-12T13:18:17.530Z,34.63
2018-07-12T13:20:45.872Z,31.70
2018-07-12T13:23:14.137Z,34.77
2018-07-12T13:25:42.795Z,34.27
2018-07-12T13:28:10.958Z,34.37
2018-07-12T13:30:39.263Z,30.83
2018-07-12T13:33:07.507Z,30.93
2018-07-12T13:35:35.976Z,31.60
2018-07-12T13:38:04.406Z,30.93
2018-07-12T13:40:32.742Z,32.47
2018-07-12T13:43:01.334Z,31.20
2018-07-12T13:45:29.994Z,29.70
2018-07-12T13:47:58.810Z,29.07
2018-07-12T13:50:28.047Z,29.33
2018-07-12T13:52:56.346Z,28.97
2018-07-12T13:55:24.814Z,30.17
2018-07-12T13:57:53.439Z,28.17
2018-07-12T14:00:22.170Z,28.77
2018-07-12T14:02:50.382Z,30.73
2018-07-12T14:05:19.869Z,29.37
2018-07-12T14:07:48.821Z,28.70
2018-07-12T14:10:17.146Z,27.67
2018-07-12T14:12:45.610Z,30.60
2018-07-12T14:15:13.775Z,30.10
2018-07-12T14:17:41.968Z,26.13
2018-07-12T14:20:10.131Z,27.20
2018-07-12T14:22:38.316Z,27.73
2018-07-12T14:25:06.506Z,25.40
2018-07-12T14:27:34.715Z,25.40
2018-07-12T14:30:02.891Z,27.70
2018-07-12T14:32:31.076Z,29.97
2018-07-12T14:34:59.275Z,31.43
2018-07-12T14:37:27.442Z,30.33
2018-07-12T14:39:55.619Z,28.93
2018-07-12T14:42:23.791Z,25.27
2018-07-12T14:44:51.971Z,24.47
2018-07-12T14:47:20.171Z,23.23
2018-07-12T14:49:48.347Z,24.40
2018-07-12T14:52:16.513Z,25.10
2018-07-12T14:54:44.682Z,23.70
2018-07-12T14:57:12.869Z,21.97
2018-07-12T14:59:41.059Z,21.80
2018-07-12T15:02:09.274Z,20.40
2018-07-12T15:04:37.451Z,21.07
2018-07-12T15:07:05.670Z,20.80
2018-07-12T15:09:33.919Z,20.97
2018-07-12T15:12:02.119Z,19.30
2018-07-12T15:14:30.286Z,18.83
2018-07-12T15:16:58.586Z,18.40
2018-07-12T15:19:26.851Z,17.50
2018-07-12T15:21:54.979Z,17.40
2018-07-12T15:24:23.183Z,17.83
2018-07-12T15:26:51.448Z,17.80
2018-07-12T15:29:19.711Z,17.63
2018-07-12T15:31:47.817Z,17.00
2018-07-12T15:34:16.091Z,16.07
2018-07-12T15:36:44.252Z,16.87
2018-07-12T15:39:12.430Z,17.43
2018-07-12T15:41:40.592Z,17.53
2018-07-12T15:44:08.973Z,17.30
2018-07-12T15:46:37.002Z,16.37
2018-07-12T15:49:05.374Z,17.43
2018-07-12T15:51:33.591Z,17.40
2018-07-12T15:54:01.834Z,16.93
2018-07-12T15:56:30.015Z,16.33
2018-07-12T15:58:58.333Z,15.77
2018-07-12T16:01:26.511Z,15.93
2018-07-12T16:03:54.805Z,15.67
2018-07-12T16:06:22.995Z,16.27
2018-07-12T16:08:51.166Z,16.37
2018-07-12T16:11:19.989Z,15.17
2018-07-12T16:13:48.211Z,15.00
2018-07-12T16:16:16.645Z,14.23
2018-07-12T16:18:44.851Z,14.60
2018-07-12T16:21:13.305Z,13.97
2018-07-12T16:23:41.616Z,14.90
2018-07-12T16:26:09.822Z,14.37
2018-07-12T16:28:38.031Z,16.00
2018-07-12T16:31:06.457Z,15.03
2018-07-12T16:33:34.684Z,15.93
2018-07-12T16:36:02.957Z,15.60
2018-07-12T16:38:31.414Z,15.70
2018-07-12T16:40:59.662Z,13.43
2018-07-12T16:43:27.906Z,14.77
2018-07-12T16:45:56.063Z,13.63
2018-07-12T16:48:24.238Z,13.97
2018-07-12T16:50:52.410Z,12.83
2018-07-12T16:53:20.582Z,14.30
2018-07-12T16:55:48.807Z,15.10
2018-07-12T16:58:17.072Z,16.23
2018-07-12T17:00:45.259Z,15.10
2018-07-12T17:03:13.544Z,15.17
2018-07-12T17:05:42.153Z,15.30
2018-07-12T17:08:10.318Z,16.83
2018-07-12T17:10:38.510Z,15.83
2018-07-12T17:13:06.697Z,15.70
2018-07-12T17:15:34.863Z,16.83
2018-07-12T17:18:03.027Z,15.37
2018-07-12T17:20:31.196Z,16.63
2018-07-12T17:22:59.367Z,15.40
2018-07-12T17:25:27.541Z,15.27
2018-07-12T17:27:55.699Z,17.17
2018-07-12T17:30:25.388Z,15.90
2018-07-12T17:32:53.554Z,15.93
2018-07-12T17:35:21.726Z,16.20
2018-07-12T17:37:49.887Z,15.47
2018-07-12T17:40:18.074Z,16.50
2018-07-12T17:42:46.251Z,17.90
2018-07-12T17:45:14.448Z,16.67
2018-07-12T17:47:42.651Z,16.30
2018-07-12T17:50:10.804Z,16.50
2018-07-12T17:52:39.002Z,16.77
2018-07-12T17:55:07.163Z,15.87
2018-07-12T17:57:35.342Z,17.83
2018-07-12T18:00:03.547Z,16.83
2018-07-12T18:02:31.744Z,16.30
2018-07-12T18:04:59.985Z,16.03
2018-07-12T18:07:28.135Z,16.63
2018-07-12T18:09:56.827Z,14.50
2018-07-12T18:12:25.004Z,16.17
2018-07-12T18:14:53.175Z,15.80
2018-07-12T18:17:21.402Z,15.17
2018-07-12T18:19:49.584Z,14.13
2018-07-12T18:22:17.888Z,15.43
2018-07-12T18:24:46.023Z,15.07
2018-07-12T18:27:14.238Z,13.83
2018-07-12T18:29:42.496Z,14.90
2018-07-12T18:32:10.819Z,15.47
2018-07-12T18:34:39.076Z,15.20
2018-07-12T18:37:07.287Z,13.77
2018-07-12T18:39:35.467Z,14.87
2018-07-12T18:42:03.772Z,15.37
2018-07-12T18:44:31.953Z,15.83
2018-07-12T18:47:00.137Z,15.10
2018-07-12T18:49:28.306Z,14.70
2018-07-12T18:51:56.710Z,14.43
2018-07-12T18:54:25.322Z,14.43
2018-07-12T18:56:56.240Z,14.80
2018-07-12T18:59:26.186Z,14.57
2018-07-12T19:01:54.455Z,14.50
2018-07-12T19:04:23.194Z,15.30
2018-07-12T19:06:51.653Z,14.10
2018-07-12T19:09:20.671Z,14.60
2018-07-12T19:11:49.429Z,14.60
2018-07-12T19:14:18.009Z,15.23
2018-07-12T19:16:46.672Z,14.63
2018-07-12T19:19:14.843Z,13.60
2018-07-12T19:21:43.030Z,16.10
2018-07-12T19:24:11.279Z,15.90
2018-07-12T19:26:39.487Z,14.37
2018-07-12T19:29:07.831Z,15.13
2018-07-12T19:31:36.187Z,14.10
2018-07-12T19:34:04.483Z,14.97
2018-07-12T19:36:32.652Z,14.87
2018-07-12T19:39:00.822Z,14.77
2018-07-12T19:41:29.012Z,15.00
2018-07-12T19:43:57.195Z,15.50
2018-07-12T19:46:25.459Z,14.63
2018-07-12T19:48:53.739Z,15.47
2018-07-12T19:51:21.899Z,15.67
2018-07-12T19:53:50.081Z,15.60
2018-07-12T19:56:18.247Z,15.07
2018-07-12T19:58:46.426Z,15.23
2018-07-12T20:01:14.605Z,15.47
2018-07-12T20:03:42.857Z,15.83
2018-07-12T20:06:10.991Z,15.90
2018-07-12T20:08:39.170Z,15.23
2018-07-12T20:11:07.350Z,15.30
2018-07-12T20:13:35.542Z,16.40
2018-07-12T20:16:03.746Z,15.43
2018-07-12T20:18:31.911Z,15.20
2018-07-12T20:21:00.092Z,14.90
2018-07-12T20:23:28.252Z,16.50
2018-07-12T20:25:56.636Z,16.43
2018-07-12T20:28:24.787Z,15.90
2018-07-12T20:30:52.982Z,15.40
2018-07-12T20:33:21.155Z,16.07
2018-07-12T20:35:49.331Z,14.73
2018-07-12T20:38:17.527Z,14.70
2018-07-12T20:40:45.985Z,15.30
2018-07-12T20:43:18.244Z,14.90
2018-07-12T20:45:46.807Z,15.97
2018-07-12T20:48:15.406Z,14.83
2018-07-12T20:50:43.510Z,15.97
2018-07-12T20:53:11.691Z,15.67
2018-07-12T20:55:39.866Z,15.43
2018-07-12T20:58:08.059Z,15.97
2018-07-12T21:00:36.231Z,16.17
2018-07-12T21:03:04.428Z,16.00
2018-07-12T21:05:32.595Z,14.70
2018-07-12T21:08:00.772Z,15.33
2018-07-12T21:10:29.002Z,16.43
2018-07-12T21:12:57.255Z,15.60
2018-07-12T21:15:25.504Z,16.53
2018-07-12T21:17:53.607Z,16.20
2018-07-12T21:20:21.799Z,17.00
2018-07-12T21:22:49.949Z,16.57
2018-07-12T21:25:18.115Z,16.53
2018-07-12T21:27:46.280Z,15.63
2018-07-12T21:30:14.464Z,17.07
2018-07-12T21:32:42.619Z,15.43
2018-07-12T21:35:10.779Z,16.57
2018-07-12T21:37:38.962Z,17.47
2018-07-12T21:40:07.460Z,17.50
2018-07-12T21:42:35.632Z,16.60
2018-07-12T21:45:03.882Z,16.32
2018-07-12T21:48:52.795Z,17.07
2018-07-12T21:51:20.966Z,17.07
2018-07-12T21:53:49.136Z,17.10
2018-07-12T21:56:17.306Z,17.30
2018-07-12T21:58:45.559Z,16.80
2018-07-12T22:01:14.019Z,18.53
2018-07-12T22:03:42.219Z,17.47
2018-07-12T22:06:10.380Z,16.63
2018-07-12T22:08:38.547Z,16.90
2018-07-12T22:11:07.169Z,18.07
2018-07-12T22:13:36.540Z,17.53
2018-07-12T22:16:04.735Z,16.20
2018-07-12T22:18:33.063Z,18.10
2018-07-12T22:21:01.260Z,16.17
2018-07-12T22:23:29.435Z,17.53
2018-07-12T22:25:57.628Z,18.33
2018-07-12T22:28:25.794Z,17.10
2018-07-12T22:30:53.970Z,18.40
2018-07-12T22:33:22.141Z,18.77
2018-07-12T22:35:50.314Z,18.17
2018-07-12T22:38:18.482Z,17.83
2018-07-12T22:40:46.658Z,17.23
2018-07-12T22:43:14.842Z,18.27
2018-07-12T22:45:43.003Z,17.90
2018-07-12T22:48:11.239Z,18.10
2018-07-12T22:50:39.338Z,18.90
2018-07-12T22:53:07.499Z,18.10
2018-07-12T22:55:35.678Z,17.60
2018-07-12T22:58:03.843Z,18.60
2018-07-12T23:00:32.013Z,18.93
2018-07-12T23:03:00.179Z,19.17
2018-07-12T23:05:28.359Z,18.13
2018-07-12T23:07:56.546Z,19.30
2018-07-12T23:10:24.718Z,19.30
2018-07-12T23:12:52.883Z,20.63
2018-07-12T23:15:21.055Z,20.20
2018-07-12T23:17:49.223Z,19.67
2018-07-12T23:20:17.386Z,19.87
2018-07-12T23:22:45.558Z,22.20
2018-07-12T23:25:13.724Z,20.80
2018-07-12T23:27:41.882Z,20.73
2018-07-12T23:30:10.063Z,21.40
2018-07-12T23:32:38.234Z,21.33
2018-07-12T23:35:06.564Z,22.63
2018-07-12T23:37:34.743Z,21.57
2018-07-12T23:40:02.906Z,21.87
2018-07-12T23:42:31.106Z,20.17
2018-07-12T23:44:59.270Z,21.80
2018-07-12T23:47:27.442Z,19.50
2018-07-12T23:49:55.610Z,19.67
2018-07-12T23:52:23.783Z,20.60
2018-07-12T23:54:51.948Z,20.17
2018-07-12T23:57:20.119Z,20.00
2018-07-12T23:59:48.306Z,20.30
